Time;durP1;ratioP1;P1;durP2;ratioP2;P2;SDS_P1;SDS_P2;PMS_P1;PMS_P2;Temp;Humidity;BMP_temperature;BMP_pressure;BME280_temperature;BME280_humidity;BME280_pressure;Samples;Min_cycle;Max_cycle;Signal;HPM_P1;HPM_P2
2021/08/15 00:01:14;;;;;;;;;;;;;;;16.62;49.15;100800.13;1617566;86;20223;-78
2021/08/15 00:03:40;;;;;;;;;;;;;;;16.60;49.29;100806.32;1609570;86;20629;-78
2021/08/15 00:06:06;;;;;;;;;;;;;;;16.58;49.32;100803.77;1610205;87;20504;-78
2021/08/15 00:08:32;;;;;;;;;;;;;;;16.55;49.36;100798.20;1625397;86;20198;-78
2021/08/15 00:10:58;;;;;;;;;;;;;;;16.48;49.29;100807.17;1659685;83;20339;-78
2021/08/15 00:13:24;;;;;;;;;;;;;;;16.40;49.58;100802.69;1651597;86;20200;-78
2021/08/15 00:15:51;;;;;;;;;;;;;;;16.39;49.63;100802.75;1659131;85;20197;-78
2021/08/15 00:18:17;;;;;;;;;;;;;;;16.36;49.67;100808.92;1679191;84;20251;-78
2021/08/15 00:20:43;;;;;;;;;;;;;;;16.28;49.79;100800.53;1678992;85;20193;-78
2021/08/15 00:23:12;;;;;;;;;;;;;;;16.25;49.85;100800.64;1679100;85;20217;-78
2021/08/15 00:25:38;;;;;;;;;;;;;;;16.26;49.94;100801.03;1671779;84;20214;-78
2021/08/15 00:28:04;;;;;;;;;;;;;;;16.26;50.00;100802.34;1675197;85;20275;-78
2021/08/15 00:30:32;;;;;;;;;;;;;;;16.26;50.06;100797.13;1675091;84;20276;-78
2021/08/15 00:32:58;;;;;;;;;;;;;;;16.25;50.12;100794.56;1660855;85;20248;-78
2021/08/15 00:35:24;;;;;;;;;;;;;;;16.25;50.12;100789.35;1677614;84;20203;-78
2021/08/15 00:37:50;;;;;;;;;;;;;;;16.22;50.17;100789.01;1667664;85;20478;-78
2021/08/15 00:40:16;;;;;;;;;;;;;;;16.19;50.20;100788.66;1654446;86;20206;-78
2021/08/15 00:42:42;;;;;;;;;;;;;;;16.17;50.35;100785.72;1642683;84;20377;-78
2021/08/15 00:45:09;;;;;;;;;;;;;;;16.12;50.37;100787.18;1639793;86;20219;-78
2021/08/15 00:47:36;;;;;;;;;;;;;;;16.11;50.44;100791.19;1642912;84;20168;-78
2021/08/15 00:50:04;;;;;;;;;;;;;;;16.09;50.58;100781.25;1651397;86;20127;-78
2021/08/15 00:52:30;;;;;;;;;;;;;;;16.07;50.64;100781.31;1667630;84;20533;-78
2021/08/15 00:55:00;;;;;;;;;;;;;;;16.07;50.72;100784.38;1654165;86;20156;-78
2021/08/15 00:57:30;;;;;;;;;;;;;;;16.05;50.77;100787.48;1642381;85;20165;-78
2021/08/15 01:00:01;;;;;;;;;;;;;;;16.04;50.80;100789.25;1647545;86;20168;-78
2021/08/15 01:02:27;;;;;;;;;;;;;;;16.02;50.86;100785.84;1665949;86;20123;-78
2021/08/15 01:04:53;;;;;;;;;;;;;;;16.01;50.85;100786.75;1648133;84;20120;-78
2021/08/15 01:07:21;;;;;;;;;;;;;;;15.97;50.90;100783.84;1656018;86;20126;-78
2021/08/15 01:09:47;;;;;;;;;;;;;;;15.94;51.00;100783.95;1669438;86;20251;-78
2021/08/15 01:12:13;;;;;;;;;;;;;;;15.92;51.05;100783.61;1667991;84;20209;-78
2021/08/15 01:14:39;;;;;;;;;;;;;;;15.88;51.08;100784.17;1658760;84;20257;-78
2021/08/15 01:17:05;;;;;;;;;;;;;;;15.86;51.16;100786.83;1653383;86;20328;-78
2021/08/15 01:19:33;;;;;;;;;;;;;;;15.84;51.20;100792.55;1640013;87;20220;-78
2021/08/15 01:21:59;;;;;;;;;;;;;;;15.78;51.27;100804.95;1652325;84;20227;-78
2021/08/15 01:24:29;;;;;;;;;;;;;;;15.74;51.26;100795.08;1667122;86;20232;-78
2021/08/15 01:26:59;;;;;;;;;;;;;;;15.65;51.44;100793.23;1666979;86;20266;-78
2021/08/15 01:29:26;;;;;;;;;;;;;;;15.63;51.58;100790.67;1664944;84;20229;-78
2021/08/15 01:31:52;;;;;;;;;;;;;;;15.64;51.63;100792.38;1667069;85;20253;-78
2021/08/15 01:34:19;;;;;;;;;;;;;;;15.62;51.71;100788.98;1647016;85;20186;-78
2021/08/15 01:36:45;;;;;;;;;;;;;;;15.56;51.62;100791.78;1650614;86;20824;-78
2021/08/15 01:39:11;;;;;;;;;;;;;;;15.52;51.71;100792.80;1629003;85;20196;-78
2021/08/15 01:41:37;;;;;;;;;;;;;;;15.50;51.87;100798.51;1626658;85;20263;-78
2021/08/15 01:44:04;;;;;;;;;;;;;;;15.50;51.75;100801.11;1626587;86;20201;-78
2021/08/15 01:46:39;;;;;;;;;;;;;;;15.44;51.77;100794.34;1649984;86;20181;-78
2021/08/15 01:49:07;;;;;;;;;;;;;;;15.36;51.96;100794.20;1623389;86;20223;-78
2021/08/15 01:51:36;;;;;;;;;;;;;;;15.34;52.04;100790.79;1623443;88;20181;-78
2021/08/15 01:54:06;;;;;;;;;;;;;;;15.33;52.15;100794.30;1668388;84;20207;-78
2021/08/15 01:56:32;;;;;;;;;;;;;;;15.29;52.10;100798.76;1649255;85;20290;-78
2021/08/15 01:58:58;;;;;;;;;;;;;;;15.24;52.32;100790.23;1669289;85;20198;-78
2021/08/15 02:01:25;;;;;;;;;;;;;;;15.22;52.41;100787.68;1664371;84;20240;-78
2021/08/15 02:03:54;;;;;;;;;;;;;;;15.20;52.39;100793.84;1670632;85;20296;-78
2021/08/15 02:06:20;;;;;;;;;;;;;;;15.18;52.49;100796.50;1658395;84;20225;-78
2021/08/15 02:08:48;;;;;;;;;;;;;;;15.17;52.60;100797.84;1661728;84;20497;-78
2021/08/15 02:11:15;;;;;;;;;;;;;;;15.15;52.55;100798.34;1707242;84;20130;-78
2021/08/15 02:13:41;;;;;;;;;;;;;;;15.13;52.67;100793.63;1694685;84;20170;-78
2021/08/15 02:16:07;;;;;;;;;;;;;;;15.13;52.66;100790.58;1678686;85;20212;-78
2021/08/15 02:18:33;;;;;;;;;;;;;;;15.12;52.76;100792.78;1678782;85;20176;-78
2021/08/15 02:20:59;;;;;;;;;;;;;;;15.12;52.76;100802.34;1678873;85;20130;-78
2021/08/15 02:23:25;;;;;;;;;;;;;;;15.13;52.83;100805.36;1678444;84;20188;-78
2021/08/15 02:25:53;;;;;;;;;;;;;;;15.11;52.75;100802.80;1678695;85;20149;-78
2021/08/15 02:28:19;;;;;;;;;;;;;;;15.08;52.85;100796.38;1668017;84;20568;-78
2021/08/15 02:30:45;;;;;;;;;;;;;;;15.02;52.86;100792.70;1678756;85;20162;-78
2021/08/15 02:33:12;;;;;;;;;;;;;;;15.00;53.04;100793.20;1667074;85;20110;-78
2021/08/15 02:35:38;;;;;;;;;;;;;;;15.00;53.00;100793.20;1651735;84;20447;-78
2021/08/15 02:38:04;;;;;;;;;;;;;;;15.00;53.09;100788.44;1663396;85;20163;-78
2021/08/15 02:40:48;;;;;;;;;;;;;;;15.00;53.06;100793.20;1651290;86;20140;-78
2021/08/15 02:43:14;;;;;;;;;;;;;;;14.98;53.15;100793.70;1669289;85;20134;-78
2021/08/15 02:45:40;;;;;;;;;;;;;;;14.97;53.12;100798.50;1663666;84;20157;-78
2021/08/15 02:48:07;;;;;;;;;;;;;;;14.96;53.20;100797.25;1669463;84;20161;-78
2021/08/15 02:50:33;;;;;;;;;;;;;;;14.93;53.14;100792.13;1642750;86;20157;-78
2021/08/15 02:52:59;;;;;;;;;;;;;;;14.86;53.32;100787.56;1642359;87;20191;-78
2021/08/15 02:55:25;;;;;;;;;;;;;;;14.84;53.30;100791.97;1650931;84;20140;-78
2021/08/15 02:57:51;;;;;;;;;;;;;;;14.79;53.37;100798.61;1642943;86;20133;-78
2021/08/15 03:00:18;;;;;;;;;;;;;;;14.79;53.47;100793.86;1654469;86;20166;-78
2021/08/15 03:02:44;;;;;;;;;;;;;;;14.80;53.54;100792.95;1657484;84;20137;-78
2021/08/15 03:05:10;;;;;;;;;;;;;;;14.80;53.57;100794.26;1668852;84;20252;-78
2021/08/15 03:07:36;;;;;;;;;;;;;;;14.80;53.62;100798.16;1646768;86;20161;-78
2021/08/15 03:10:03;;;;;;;;;;;;;;;14.80;53.68;100802.92;1661554;86;20399;-78
2021/08/15 03:12:29;;;;;;;;;;;;;;;14.81;53.74;100795.96;1661722;84;20140;-78
2021/08/15 03:14:55;;;;;;;;;;;;;;;14.79;53.72;100800.36;1653804;86;20153;-78
2021/08/15 03:17:21;;;;;;;;;;;;;;;14.79;53.82;100799.06;1642604;84;20524;-77
2021/08/15 03:19:47;;;;;;;;;;;;;;;14.78;53.91;100806.02;1672758;85;20181;-77
2021/08/15 03:22:13;;;;;;;;;;;;;;;14.81;53.94;100805.08;1688957;84;20236;-77
2021/08/15 03:24:39;;;;;;;;;;;;;;;14.81;54.01;100804.62;1692164;84;20178;-77
2021/08/15 03:27:05;;;;;;;;;;;;;;;14.76;53.94;100804.36;1659620;84;20201;-77
2021/08/15 03:29:32;;;;;;;;;;;;;;;14.75;54.14;100805.26;1642725;86;20264;-77
2021/08/15 03:32:00;;;;;;;;;;;;;;;14.78;54.23;100805.17;1639998;87;20212;-77
2021/08/15 03:34:26;;;;;;;;;;;;;;;14.83;54.22;100809.78;1664859;84;20214;-77
2021/08/15 03:36:52;;;;;;;;;;;;;;;14.85;54.24;100804.08;1640188;87;20252;-77
2021/08/15 03:39:21;;;;;;;;;;;;;;;14.87;54.30;100808.34;1666274;86;20127;-78
2021/08/15 03:41:47;;;;;;;;;;;;;;;14.90;54.39;100807.40;1669836;84;20164;-78
2021/08/15 03:44:14;;;;;;;;;;;;;;;14.93;54.42;100807.31;1681613;85;20161;-77
2021/08/15 03:46:41;;;;;;;;;;;;;;;14.96;54.46;100800.70;1681707;85;20125;-77
2021/08/15 03:49:07;;;;;;;;;;;;;;;14.99;54.51;100808.88;1681661;85;20086;-77
2021/08/15 03:51:33;;;;;;;;;;;;;;;15.00;54.57;100804.92;1669321;84;20125;-77
2021/08/15 03:53:59;;;;;;;;;;;;;;;15.03;54.58;100806.13;1653998;86;20254;-77
2021/08/15 03:56:25;;;;;;;;;;;;;;;15.06;54.62;100800.82;1664165;84;20141;-77
2021/08/15 03:58:51;;;;;;;;;;;;;;;15.08;54.63;100804.64;1669490;84;20843;-77
2021/08/15 04:01:17;;;;;;;;;;;;;;;15.10;54.64;100806.30;1664380;85;20254;-77
2021/08/15 04:03:44;;;;;;;;;;;;;;;15.12;54.70;100807.56;1671811;85;20129;-77
2021/08/15 04:06:10;;;;;;;;;;;;;;;15.13;54.74;100810.56;1670013;84;20160;-77
2021/08/15 04:08:36;;;;;;;;;;;;;;;15.15;54.78;100807.46;1674182;84;20138;-77
2021/08/15 04:11:03;;;;;;;;;;;;;;;15.13;54.80;100807.51;1710125;84;20094;-77
2021/08/15 04:13:29;;;;;;;;;;;;;;;15.16;54.92;100800.05;1669906;84;20158;-77
2021/08/15 04:15:55;;;;;;;;;;;;;;;15.21;54.94;100799.45;1624942;87;20179;-77
2021/08/15 04:18:23;;;;;;;;;;;;;;;15.23;55.07;100798.95;1609408;86;20166;-77
2021/08/15 04:20:49;;;;;;;;;;;;;;;15.28;55.10;100799.66;1603997;88;20136;-77
2021/08/15 04:23:15;;;;;;;;;;;;;;;15.32;55.17;100797.35;1626207;86;20168;-77
2021/08/15 04:25:45;;;;;;;;;;;;;;;15.39;55.28;100796.70;1623327;86;20117;-77
2021/08/15 04:28:11;;;;;;;;;;;;;;;15.44;55.25;100798.26;1602822;88;20135;-77
2021/08/15 04:30:43;;;;;;;;;;;;;;;15.50;55.27;100798.51;1621238;88;20141;-77
2021/08/15 04:33:09;;;;;;;;;;;;;;;15.57;55.31;100797.89;1628065;86;20168;-77
2021/08/15 04:35:35;;;;;;;;;;;;;;;15.63;55.32;100799.80;1628038;88;20236;-77
2021/08/15 04:38:01;;;;;;;;;;;;;;;15.68;55.38;100799.65;1614356;86;20230;-77
2021/08/15 04:40:27;;;;;;;;;;;;;;;15.71;55.41;100797.79;1627714;88;20179;-77
2021/08/15 04:43:02;;;;;;;;;;;;;;;15.75;55.43;100799.39;1652910;86;20130;-77
2021/08/15 04:45:28;;;;;;;;;;;;;;;15.79;55.44;100797.08;1601673;88;20731;-77
2021/08/15 04:47:55;;;;;;;;;;;;;;;15.83;55.46;100801.73;1648738;85;20118;-77
2021/08/15 04:50:39;;;;;;;;;;;;;;;15.86;55.52;100799.87;1636643;86;20143;-77
2021/08/15 04:53:04;;;;;;;;;;;;;;;15.92;55.61;100799.26;1623538;87;20890;-77
2021/08/15 04:55:31;;;;;;;;;;;;;;;15.96;55.64;100799.55;1591350;88;20268;-77
2021/08/15 04:57:57;;;;;;;;;;;;;;;16.00;55.62;100803.30;1596491;88;20216;-77
2021/08/15 05:00:23;;;;;;;;;;;;;;;16.06;55.67;100804.39;1592846;88;20482;-77
2021/08/15 05:02:49;;;;;;;;;;;;;;;16.11;55.68;100805.08;1635916;86;20261;-77
2021/08/15 05:05:15;;;;;;;;;;;;;;;16.17;55.76;100801.37;1639482;85;20211;-77
2021/08/15 05:07:41;;;;;;;;;;;;;;;16.23;55.81;100798.54;1645719;87;20888;-77
2021/08/15 05:10:09;;;;;;;;;;;;;;;16.26;55.73;100798.42;1641842;86;20515;-77
2021/08/15 05:12:35;;;;;;;;;;;;;;;16.26;55.92;100793.66;1597762;88;20154;-77
2021/08/15 05:15:00;;;;;;;;;;;;;;;16.31;56.15;100796.50;1641138;86;20201;-77
2021/08/15 05:17:26;;;;;;;;;;;;;;;16.55;56.51;100803.88;1602033;87;20205;-77
2021/08/15 05:19:52;;;;;;;;;;;;;;;16.97;56.75;100805.77;1652926;85;20204;-77
2021/08/15 05:22:19;;;;;;;;;;;;;;;17.51;56.81;100803.97;1598147;88;20148;-77
2021/08/15 05:24:45;;;;;;;;;;;;;;;18.04;56.10;100800.84;1639730;85;20232;-77
2021/08/15 05:27:11;;;;;;;;;;;;;;;18.58;56.09;100810.58;1603011;88;20521;-77
2021/08/15 05:29:37;;;;;;;;;;;;;;;19.10;56.16;100814.70;1640433;85;20204;-77
2021/08/15 05:32:04;;;;;;;;;;;;;;;19.75;56.32;100813.23;1600091;88;20155;-77
2021/08/15 05:34:30;;;;;;;;;;;;;;;20.41;55.65;100811.47;1636997;85;20212;-77
2021/08/15 05:36:56;;;;;;;;;;;;;;;20.96;55.67;100808.42;1646077;85;20194;-77
2021/08/15 05:39:22;;;;;;;;;;;;;;;21.64;55.72;100806.26;1656612;85;20822;-77
2021/08/15 05:41:48;;;;;;;;;;;;;;;22.31;55.40;100798.72;1665549;84;20224;-77
2021/08/15 05:44:14;;;;;;;;;;;;;;;22.88;54.96;100807.37;1661136;84;20294;-77
2021/08/15 05:46:40;;;;;;;;;;;;;;;23.44;54.71;100811.56;1669786;84;20225;-77
2021/08/15 05:49:07;;;;;;;;;;;;;;;24.00;54.51;100808.69;1661538;84;20248;-77
2021/08/15 05:51:33;;;;;;;;;;;;;;;24.52;54.08;100815.63;1671490;85;20111;-77
2021/08/15 05:54:00;;;;;;;;;;;;;;;25.03;53.82;100817.17;1652209;86;20091;-78
2021/08/15 05:56:29;;;;;;;;;;;;;;;25.57;53.65;100820.63;1653998;86;20111;-78
2021/08/15 05:58:54;;;;;;;;;;;;;;;25.98;53.25;100819.32;1654560;85;20102;-78
2021/08/15 06:01:20;;;;;;;;;;;;;;;26.19;53.24;100821.61;1612670;87;20791;-78
2021/08/15 06:03:46;;;;;;;;;;;;;;;26.55;53.08;100819.68;1609305;87;20132;-78
2021/08/15 06:06:12;;;;;;;;;;;;;;;26.81;52.75;100818.92;1612958;87;20179;-78
2021/08/15 06:08:38;;;;;;;;;;;;;;;27.06;52.54;100819.95;1612172;86;20135;-78
2021/08/15 06:11:04;;;;;;;;;;;;;;;27.32;52.27;100821.80;1611891;87;20133;-78
2021/08/15 06:13:30;;;;;;;;;;;;;;;27.55;52.25;100819.88;1629464;85;20113;-78
2021/08/15 06:15:56;;;;;;;;;;;;;;;27.76;51.95;100822.06;1614934;87;20106;-78
2021/08/15 06:18:22;;;;;;;;;;;;;;;27.95;51.70;100819.53;1606025;87;20115;-78
2021/08/15 06:20:48;;;;;;;;;;;;;;;28.12;51.49;100818.54;1604118;87;20181;-78
2021/08/15 06:23:14;;;;;;;;;;;;;;;28.31;51.45;100825.31;1607540;86;20115;-78
2021/08/15 06:25:40;;;;;;;;;;;;;;;28.42;51.29;100826.55;1627816;87;20112;-78
2021/08/15 06:28:12;;;;;;;;;;;;;;;28.61;50.93;100833.24;1625728;86;20122;-78
2021/08/15 06:30:38;;;;;;;;;;;;;;;28.85;50.71;100833.41;1623235;87;20801;-78
2021/08/15 06:33:05;;;;;;;;;;;;;;;29.07;50.46;100838.98;1648470;85;20270;-78
2021/08/15 06:35:31;;;;;;;;;;;;;;;29.17;50.21;100833.99;1651300;86;20110;-78
2021/08/15 06:37:57;;;;;;;;;;;;;;;29.31;50.02;100845.57;1622429;87;20142;-78
2021/08/15 06:40:28;;;;;;;;;;;;;;;29.36;49.50;100844.31;1622052;87;20163;-78
2021/08/15 06:43:08;;;;;;;;;;;;;;;29.34;49.51;100840.45;1628341;86;20410;-78
2021/08/15 06:45:38;;;;;;;;;;;;;;;29.27;49.20;100832.67;1622787;87;20128;-78
2021/08/15 06:48:05;;;;;;;;;;;;;;;29.36;49.11;100834.98;1607204;88;20093;-78
2021/08/15 06:50:31;;;;;;;;;;;;;;;29.52;48.89;100827.30;1601060;88;20310;-78
2021/08/15 06:53:04;;;;;;;;;;;;;;;29.68;48.56;100832.03;1636809;85;20426;-78
2021/08/15 06:55:30;;;;;;;;;;;;;;;29.79;48.28;100841.20;1643124;85;20219;-78
2021/08/15 06:57:56;;;;;;;;;;;;;;;29.83;48.13;100831.94;1642958;85;20166;-78
2021/08/15 07:00:26;;;;;;;;;;;;;;;30.02;48.31;100830.59;1640194;86;20170;-78
2021/08/15 07:02:52;;;;;;;;;;;;;;;30.30;48.26;100836.30;1643266;85;20142;-78
2021/08/15 07:05:19;;;;;;;;;;;;;;;30.39;47.70;100833.24;1636924;85;20188;-78
2021/08/15 07:07:45;;;;;;;;;;;;;;;30.41;47.62;100829.94;1644524;85;20207;-78
2021/08/15 07:10:12;;;;;;;;;;;;;;;30.58;47.51;100828.34;1632353;85;20126;-78
2021/08/15 07:12:52;;;;;;;;;;;;;;;30.93;47.33;100827.05;1639897;87;20516;-78
2021/08/15 07:15:14;;;;;;;;;;;;;;;31.24;47.43;100825.36;1642774;87;20263;-78
2021/08/15 07:17:41;;;;;;;;;;;;;;;31.20;46.61;100814.63;1596250;88;20245;-78
2021/08/15 07:20:08;;;;;;;;;;;;;;;31.17;46.21;100818.97;1636947;86;20219;-78
2021/08/15 07:22:34;;;;;;;;;;;;;;;31.20;46.42;100818.64;1648315;85;20215;-78
2021/08/15 07:25:01;;;;;;;;;;;;;;;31.37;46.07;100816.45;1597614;88;20272;-78
2021/08/15 07:27:27;;;;;;;;;;;;;;;31.26;45.57;100809.52;1598785;88;20202;-78
2021/08/15 07:29:53;;;;;;;;;;;;;;;31.16;45.61;100814.13;1599557;88;20215;-78
2021/08/15 07:32:19;;;;;;;;;;;;;;;30.86;45.08;100815.78;1597717;88;20183;-78
2021/08/15 07:34:45;;;;;;;;;;;;;;;30.37;45.11;100821.03;1654790;85;20221;-78
2021/08/15 07:37:12;;;;;;;;;;;;;;;29.87;45.09;100823.50;1654303;85;20181;-78
2021/08/15 07:39:38;;;;;;;;;;;;;;;29.36;44.59;100818.52;1647548;85;20799;-78
2021/08/15 07:42:04;;;;;;;;;;;;;;;29.16;44.79;100832.31;1667910;84;20266;-79
2021/08/15 07:44:30;;;;;;;;;;;;;;;29.25;44.82;100836.80;1688259;84;20174;-79
2021/08/15 07:46:56;;;;;;;;;;;;;;;29.39;44.32;100830.71;1652762;85;20300;-79
2021/08/15 07:49:22;;;;;;;;;;;;;;;29.45;43.98;100835.02;1653202;85;20822;-79
2021/08/15 07:51:48;;;;;;;;;;;;;;;29.28;44.04;100831.69;1652899;85;20211;-79
2021/08/15 07:54:15;;;;;;;;;;;;;;;29.26;43.89;100834.49;1650761;85;20661;-79
2021/08/15 07:56:41;;;;;;;;;;;;;;;29.39;43.79;100828.89;1625642;86;20447;-79
2021/08/15 07:59:09;;;;;;;;;;;;;;;29.50;43.83;100831.44;1633366;86;20736;-79
2021/08/15 08:01:35;;;;;;;;;;;;;;;29.60;43.51;100824.28;1637396;86;20266;-79
2021/08/15 08:04:01;;;;;;;;;;;;;;;29.81;43.55;100825.41;1672160;84;20825;-79
2021/08/15 08:06:33;;;;;;;;;;;;;;;29.97;43.24;100820.33;1676143;84;20216;-79
2021/08/15 08:08:59;;;;;;;;;;;;;;;30.18;43.23;100821.95;1665114;84;20204;-79
2021/08/15 08:11:25;;;;;;;;;;;;;;;30.37;42.99;100819.20;1671136;84;20839;-79
2021/08/15 08:13:51;;;;;;;;;;;;;;;30.53;42.65;100818.58;1667103;85;20252;-79
2021/08/15 08:16:17;;;;;;;;;;;;;;;30.53;42.55;100815.91;1674945;84;20888;-78
2021/08/15 08:18:48;;;;;;;;;;;;;;;30.52;42.58;100812.89;1673623;84;20126;-75
2021/08/15 08:21:13;;;;;;;;;;;;;;;30.22;42.25;100811.34;1662785;84;20321;-77
2021/08/15 08:23:39;;;;;;;;;;;;;;;29.92;42.03;100812.41;1658042;84;20311;-77
2021/08/15 08:26:06;;;;;;;;;;;;;;;29.75;42.11;100809.15;1673023;84;20138;-77
2021/08/15 08:28:32;;;;;;;;;;;;;;;29.69;42.33;100813.72;1676592;84;20660;-77
2021/08/15 08:31:01;;;;;;;;;;;;;;;29.68;41.99;100810.22;1671900;85;20648;-77
2021/08/15 08:33:27;;;;;;;;;;;;;;;29.64;41.76;100809.66;1662107;85;20847;-77
2021/08/15 08:35:53;;;;;;;;;;;;;;;29.55;41.87;100807.88;1674597;85;20099;-77
2021/08/15 08:38:22;;;;;;;;;;;;;;;29.53;41.84;100807.67;1667102;84;20554;-77
2021/08/15 08:40:49;;;;;;;;;;;;;;;29.49;41.55;100803.60;1669047;84;20236;-77
2021/08/15 08:43:17;;;;;;;;;;;;;;;29.31;41.41;100808.27;1671817;84;20136;-77
2021/08/15 08:45:46;;;;;;;;;;;;;;;29.24;41.45;100804.48;1658021;86;20566;-77
2021/08/15 08:48:14;;;;;;;;;;;;;;;29.24;41.25;100807.16;1662546;85;20127;-77
2021/08/15 08:50:41;;;;;;;;;;;;;;;29.13;41.19;100801.12;1658870;84;20166;-77
2021/08/15 08:53:07;;;;;;;;;;;;;;;29.16;40.94;100806.17;1667432;84;20169;-77
2021/08/15 08:55:33;;;;;;;;;;;;;;;29.30;40.92;100803.93;1668084;84;20104;-77
2021/08/15 08:57:59;;;;;;;;;;;;;;;29.55;40.93;100805.70;1668506;84;20557;-77
2021/08/15 09:00:25;;;;;;;;;;;;;;;29.73;40.72;100811.95;1665494;84;20261;-77
2021/08/15 09:02:57;;;;;;;;;;;;;;;29.85;40.81;100813.48;1661888;86;20216;-77
2021/08/15 09:05:31;;;;;;;;;;;;;;;29.98;40.62;100814.50;1661919;85;20639;-77
2021/08/15 09:07:58;;;;;;;;;;;;;;;30.06;40.48;100816.48;1661125;84;20388;-77
2021/08/15 09:10:33;;;;;;;;;;;;;;;30.07;40.42;100814.16;1656539;85;20152;-77
2021/08/15 09:13:04;;;;;;;;;;;;;;;30.12;40.47;100814.06;1656326;86;20406;-77
2021/08/15 09:15:31;;;;;;;;;;;;;;;30.17;40.45;100814.44;1631559;85;20547;-77
2021/08/15 09:17:58;;;;;;;;;;;;;;;30.14;40.28;100813.92;1619922;87;20435;-77
2021/08/15 09:20:43;;;;;;;;;;;;;;;29.65;40.00;100816.67;1617883;87;20484;-78
2021/08/15 09:23:24;;;;;;;;;;;;;;;29.24;39.71;100820.96;1654752;85;20498;-78
2021/08/15 09:26:12;;;;;;;;;;;;;;;28.88;39.71;100825.99;1652860;85;20122;-78
2021/08/15 09:28:43;;;;;;;;;;;;;;;28.56;39.37;100826.67;1675799;84;20438;-78
2021/08/15 09:31:32;;;;;;;;;;;;;;;28.19;39.26;100819.20;1666002;84;20164;-78
2021/08/15 09:34:02;;;;;;;;;;;;;;;27.96;39.32;100813.73;1658812;86;20534;-78
2021/08/15 09:36:36;;;;;;;;;;;;;;;27.76;39.17;100814.09;1668276;85;20558;-78
2021/08/15 09:39:06;;;;;;;;;;;;;;;27.62;39.08;100815.26;1661887;84;20574;-78
2021/08/15 09:41:36;;;;;;;;;;;;;;;27.50;38.84;100812.78;1659746;85;20461;-78
2021/08/15 09:44:24;;;;;;;;;;;;;;;27.35;38.92;100805.12;1650551;85;20131;-78
2021/08/15 09:47:02;;;;;;;;;;;;;;;27.27;38.81;100803.59;1627532;87;20134;-78
2021/08/15 09:49:38;;;;;;;;;;;;;;;27.18;38.88;100791.55;1619126;87;20551;-78
2021/08/15 09:52:05;;;;;;;;;;;;;;;27.17;38.72;100793.37;1620996;87;20141;-78
2021/08/15 09:54:40;;;;;;;;;;;;;;;27.08;38.69;100800.76;1628161;87;20617;-78
2021/08/15 09:57:10;;;;;;;;;;;;;;;27.01;38.79;100795.14;1623339;87;20765;-78
2021/08/15 09:59:38;;;;;;;;;;;;;;;27.01;38.88;100789.84;1623348;87;20111;-78
2021/08/15 10:02:05;;;;;;;;;;;;;;;26.96;38.77;100784.06;1609419;87;20530;-78
2021/08/15 10:04:32;;;;;;;;;;;;;;;26.86;38.68;100786.23;1646418;86;20433;-78
2021/08/15 10:06:59;;;;;;;;;;;;;;;26.86;38.76;100789.72;1622770;87;20604;-78
2021/08/15 10:09:26;;;;;;;;;;;;;;;26.94;38.79;100782.47;1630832;87;20129;-78
2021/08/15 10:11:53;;;;;;;;;;;;;;;26.99;38.75;100781.16;1653051;85;20517;-78
2021/08/15 10:14:19;;;;;;;;;;;;;;;27.01;38.66;100778.38;1643832;85;20136;-78
2021/08/15 10:17:03;;;;;;;;;;;;;;;27.04;38.69;100781.59;1627998;86;20140;-78
2021/08/15 10:19:40;;;;;;;;;;;;;;;27.02;38.73;100784.04;1586235;88;20119;-78
2021/08/15 10:22:06;;;;;;;;;;;;;;;27.02;38.74;100772.09;1620193;87;20113;-78
2021/08/15 10:24:43;;;;;;;;;;;;;;;27.06;38.78;100777.96;1640194;85;20554;-78
2021/08/15 10:27:10;;;;;;;;;;;;;;;27.14;38.80;100768.88;1625143;87;20575;-78
2021/08/15 10:29:43;;;;;;;;;;;;;;;27.18;38.66;100763.68;1636393;87;20136;-78
2021/08/15 10:32:20;;;;;;;;;;;;;;;27.19;38.62;100757.40;1648573;85;20545;-79
2021/08/15 10:34:54;;;;;;;;;;;;;;;27.11;38.70;100758.03;1645197;85;20146;-79
2021/08/15 10:37:26;;;;;;;;;;;;;;;27.12;38.74;100755.73;1635043;85;20415;-79
2021/08/15 10:39:56;;;;;;;;;;;;;;;27.16;38.71;100761.15;1625296;87;20452;-79
2021/08/15 10:42:47;;;;;;;;;;;;;;;27.15;38.70;100759.47;1616951;87;20101;-79
2021/08/15 10:45:24;;;;;;;;;;;;;;;27.18;38.69;100756.55;1622767;87;20138;-79
2021/08/15 10:48:12;;;;;;;;;;;;;;;27.16;38.78;100747.03;1640102;85;20107;-79
2021/08/15 10:50:46;;;;;;;;;;;;;;;27.14;38.64;100759.11;1627987;87;20113;-79
2021/08/15 10:53:30;;;;;;;;;;;;;;;27.13;38.78;100748.13;1645022;86;20407;-79
2021/08/15 10:56:06;;;;;;;;;;;;;;;27.15;38.66;100739.55;1601574;87;20096;-79
2021/08/15 10:58:47;;;;;;;;;;;;;;;27.16;38.67;100735.09;1647144;87;20395;-79
2021/08/15 11:01:17;;;;;;;;;;;;;;;27.11;38.67;100738.13;1624803;88;20093;-79
2021/08/15 11:03:52;;;;;;;;;;;;;;;26.99;38.65;100748.45;1623519;88;20512;-79
2021/08/15 11:06:34;;;;;;;;;;;;;;;26.91;38.58;100737.11;1635961;87;20111;-79
2021/08/15 11:09:05;;;;;;;;;;;;;;;26.89;38.73;100736.88;1623119;88;20145;-79
2021/08/15 11:11:37;;;;;;;;;;;;;;;26.91;38.80;100740.25;1612126;87;20132;-79
2021/08/15 11:14:23;;;;;;;;;;;;;;;27.02;38.74;100738.92;1607078;88;20137;-79
2021/08/15 11:17:11;;;;;;;;;;;;;;;27.11;38.69;100739.94;1623357;88;20093;-79
2021/08/15 11:19:37;;;;;;;;;;;;;;;27.06;38.48;100738.98;1620503;87;20117;-79
2021/08/15 11:22:18;;;;;;;;;;;;;;;27.07;38.60;100729.21;1647866;85;20229;-79
2021/08/15 11:24:47;;;;;;;;;;;;;;;27.16;38.55;100729.29;1654117;85;20099;-79
2021/08/15 11:27:30;;;;;;;;;;;;;;;27.12;38.43;100722.55;1631987;85;20130;-79
2021/08/15 11:29:58;;;;;;;;;;;;;;;27.06;38.47;100711.12;1604562;88;20105;-79
2021/08/15 11:32:29;;;;;;;;;;;;;;;27.08;38.52;100716.30;1623176;88;20114;-79
2021/08/15 11:34:58;;;;;;;;;;;;;;;27.14;38.58;100721.94;1641207;85;20124;-79
2021/08/15 11:37:30;;;;;;;;;;;;;;;27.20;38.45;100721.91;1608923;88;20120;-79
2021/08/15 11:39:57;;;;;;;;;;;;;;;27.21;38.41;100719.13;1597719;87;20136;-79
2021/08/15 11:42:25;;;;;;;;;;;;;;;27.13;38.36;100718.09;1600294;88;20107;-79
2021/08/15 11:45:00;;;;;;;;;;;;;;;27.12;38.37;100717.24;1649839;85;20115;-79
2021/08/15 11:47:31;;;;;;;;;;;;;;;27.12;38.45;100713.75;1652421;85;20156;-79
2021/08/15 11:49:59;;;;;;;;;;;;;;;27.16;38.34;100708.05;1669380;84;20133;-79
2021/08/15 11:52:31;;;;;;;;;;;;;;;27.19;38.37;100699.83;1670619;85;20131;-79
2021/08/15 11:54:55;;;;;;;;;;;;;;;27.23;38.33;100693.77;1673573;84;20573;-79
2021/08/15 11:57:21;;;;;;;;;;;;;;;27.25;38.32;100691.34;1651348;85;20669;-79
2021/08/15 11:59:51;;;;;;;;;;;;;;;27.27;38.27;100693.88;1651497;87;20164;-79
2021/08/15 12:02:21;;;;;;;;;;;;;;;27.32;38.26;100691.67;1673933;84;20149;-79
2021/08/15 12:04:49;;;;;;;;;;;;;;;27.35;38.19;100700.70;1665500;84;20127;-80
2021/08/15 12:07:23;;;;;;;;;;;;;;;27.30;37.99;100697.59;1654291;84;20143;-79
2021/08/15 12:10:24;;;;;;;;;;;;;;;27.22;38.06;100689.44;1660929;85;20160;-79
2021/08/15 12:13:17;;;;;;;;;;;;;;;27.21;38.11;100687.27;1678960;85;20129;-79
2021/08/15 12:15:46;;;;;;;;;;;;;;;27.23;38.13;100686.66;1667783;84;20160;-79
2021/08/15 12:18:30;;;;;;;;;;;;;;;27.28;38.07;100692.91;1650878;85;20128;-79
2021/08/15 12:20:58;;;;;;;;;;;;;;;27.26;37.91;100682.90;1663340;84;20118;-79
2021/08/15 12:23:32;;;;;;;;;;;;;;;27.31;37.96;100688.17;1668153;85;20141;-79
2021/08/15 12:26:04;;;;;;;;;;;;;;;27.49;37.99;100695.06;1674810;85;20199;-79
2021/08/15 12:28:32;;;;;;;;;;;;;;;27.61;37.75;100683.39;1678665;85;20125;-79
2021/08/15 12:31:20;;;;;;;;;;;;;;;27.68;37.62;100677.90;1665578;84;20140;-79
2021/08/15 12:33:46;;;;;;;;;;;;;;;27.71;37.70;100683.92;1669600;85;20137;-79
2021/08/15 12:36:26;;;;;;;;;;;;;;;27.69;37.59;100684.90;1661661;84;20152;-79
2021/08/15 12:39:04;;;;;;;;;;;;;;;27.64;37.44;100680.95;1651423;85;20144;-79
2021/08/15 12:41:53;;;;;;;;;;;;;;;27.55;37.47;100690.55;1670678;84;20095;-79
2021/08/15 12:44:22;;;;;;;;;;;;;;;27.51;37.63;100689.62;1668245;84;20130;-79